createdAt,value
2018-03-23T00:04:02.522Z,79.18
2018-03-23T00:07:07.035Z,78.57
2018-03-23T00:16:02.442Z,80.06
2018-03-23T00:18:35.429Z,79.72
2018-03-23T00:21:08.046Z,79.58
2018-03-23T00:40:12.675Z,79.04
2018-03-23T00:42:45.176Z,78.61
2018-03-23T00:45:17.778Z,79.32
2018-03-23T01:04:23.442Z,79.67
2018-03-23T01:06:56.119Z,79.13
2018-03-23T01:09:28.699Z,79.69
2018-03-23T01:12:01.474Z,79.86
2018-03-23T01:31:04.655Z,80.41
2018-03-23T01:33:37.378Z,79.92
2018-03-23T01:36:09.938Z,79.95
2018-03-23T01:38:42.716Z,79.79
2018-03-23T01:57:50.867Z,81.06
2018-03-23T02:00:23.547Z,81.04
2018-03-23T02:02:56.336Z,81.13
2018-03-23T02:22:00.118Z,80.54
2018-03-23T02:24:32.866Z,79.71
2018-03-23T02:27:05.614Z,79.32
2018-03-23T02:46:09.673Z,79.18
2018-03-23T02:48:42.242Z,78.95
2018-03-23T02:51:15.126Z,78.78
2018-03-23T02:53:47.901Z,78.99
2018-03-23T03:12:53.238Z,79.95
2018-03-23T03:15:26.009Z,80.20
2018-03-23T03:17:58.748Z,79.44
2018-03-23T03:20:31.820Z,79.57
2018-03-23T03:39:35.238Z,79.42
2018-03-23T03:42:07.760Z,79.74
2018-03-23T03:44:40.609Z,80.30
2018-03-23T04:03:46.191Z,78.94
2018-03-23T04:06:18.715Z,79.55
2018-03-23T04:08:51.588Z,79.44
2018-03-23T04:27:55.024Z,79.36
2018-03-23T04:30:28.124Z,78.80
2018-03-23T04:33:00.730Z,79.54
2018-03-23T04:35:33.453Z,79.25
2018-03-23T04:54:42.130Z,79.01
2018-03-23T04:57:14.874Z,78.95
2018-03-23T04:59:47.850Z,78.43
2018-03-23T05:18:55.454Z,78.41
2018-03-23T05:21:29.572Z,78.43
2018-03-23T05:24:02.251Z,78.89
2018-03-23T05:43:11.457Z,78.41
2018-03-23T05:45:44.797Z,78.06
2018-03-23T05:48:17.583Z,77.81
2018-03-23T05:50:50.493Z,78.26
2018-03-23T06:09:54.454Z,76.85
2018-03-23T06:12:27.336Z,76.95
2018-03-23T06:15:00.237Z,77.80
2018-03-23T06:17:33.020Z,78.02
2018-03-23T06:20:05.988Z,77.72
2018-03-23T06:22:38.951Z,78.12
2018-03-23T06:41:42.420Z,76.56
2018-03-23T06:44:16.084Z,77.14
2018-03-23T06:46:50.004Z,77.64
2018-03-23T07:05:53.735Z,77.38
2018-03-23T07:08:26.787Z,77.11
2018-03-23T07:10:59.859Z,77.77
2018-03-23T07:30:04.490Z,76.14
2018-03-23T07:32:37.444Z,75.63
2018-03-23T07:35:14.309Z,74.84
2018-03-23T07:37:49.817Z,74.90
2018-03-23T07:40:22.841Z,74.46
2018-03-23T07:42:56.665Z,74.31
2018-03-23T07:45:33.555Z,75.00
2018-03-23T07:48:06.848Z,75.12
2018-03-23T07:50:39.918Z,75.24
2018-03-23T07:53:13.914Z,74.64
2018-03-23T08:12:21.664Z,75.59
2018-03-23T08:14:57.902Z,75.94
2018-03-23T08:17:30.692Z,75.63
2018-03-23T08:36:39.533Z,74.74
2018-03-23T08:39:15.932Z,74.93
2018-03-23T08:41:48.665Z,74.27
2018-03-23T09:00:55.045Z,71.13
2018-03-23T09:03:31.501Z,71.06
2018-03-23T09:06:07.766Z,70.75
2018-03-23T09:08:40.680Z,70.23
2018-03-23T09:27:46.817Z,69.58
2018-03-23T09:30:19.627Z,71.20
2018-03-23T09:32:58.411Z,71.06
2018-03-23T09:55:07.768Z,64.05
2018-03-23T09:57:40.778Z,64.12
2018-03-23T10:00:14.093Z,64.17
2018-03-23T10:02:47.035Z,62.26
2018-03-23T10:05:19.762Z,61.79
2018-03-23T10:07:53.883Z,60.85
2018-03-23T10:10:29.817Z,59.71
2018-03-23T10:13:03.462Z,58.93
2018-03-23T10:15:37.105Z,58.84
2018-03-23T10:18:13.776Z,57.15
2018-03-23T10:20:46.672Z,56.32
2018-03-23T10:23:19.524Z,56.86
2018-03-23T10:42:22.835Z,54.08
2018-03-23T10:44:55.503Z,55.50
2018-03-23T10:47:28.975Z,53.62
2018-03-23T11:06:31.954Z,52.86
2018-03-23T11:09:08.297Z,55.27
2018-03-23T11:11:41.927Z,53.61
2018-03-23T11:30:46.006Z,52.23
2018-03-23T11:33:22.390Z,52.67
2018-03-23T11:35:59.261Z,53.25
2018-03-23T11:38:32.674Z,53.69
2018-03-23T11:41:05.388Z,53.87
2018-03-23T11:43:43.278Z,52.86
2018-03-23T11:46:22.646Z,53.73
2018-03-23T11:48:58.655Z,54.60
2018-03-23T11:51:31.865Z,53.81
2018-03-23T11:54:04.672Z,52.89
2018-03-23T11:56:41.578Z,53.80
2018-03-23T11:59:14.441Z,54.14
2018-03-23T12:18:25.516Z,54.80
2018-03-23T12:20:58.256Z,54.99
2018-03-23T12:23:31.651Z,55.58
2018-03-23T12:26:08.308Z,56.35
2018-03-23T12:31:18.490Z,56.75
2018-03-23T12:33:51.840Z,56.34
2018-03-23T12:36:27.332Z,56.61
2018-03-23T12:55:33.084Z,56.03
2018-03-23T12:58:09.167Z,56.75
2018-03-23T13:00:41.770Z,57.25
2018-03-23T13:03:14.876Z,56.64
2018-03-23T13:05:51.358Z,56.07
2018-03-23T13:08:24.149Z,56.03
2018-03-23T13:11:00.530Z,56.63
2018-03-23T13:13:33.407Z,55.62
2018-03-23T13:16:07.293Z,55.59
2018-03-23T13:18:44.329Z,55.08
2018-03-23T13:37:48.220Z,51.82
2018-03-23T13:40:23.981Z,50.48
2018-03-23T13:43:00.115Z,50.41
2018-03-23T13:45:36.326Z,50.64
2018-03-23T13:48:09.161Z,50.12
2018-03-23T14:07:18.817Z,50.29
2018-03-23T14:09:51.764Z,52.93
2018-03-23T14:12:25.616Z,53.21
2018-03-23T14:14:58.920Z,50.20
2018-03-23T14:17:31.619Z,49.89
2018-03-23T14:20:04.770Z,49.11
2018-03-23T14:22:42.161Z,49.64
2018-03-23T14:25:14.902Z,50.15
2018-03-23T14:27:50.630Z,50.86
2018-03-23T14:46:54.597Z,52.41
2018-03-23T14:49:27.285Z,51.89
2018-03-23T14:52:00.340Z,51.99
2018-03-23T15:11:06.060Z,51.37
2018-03-23T15:13:39.635Z,51.17
2018-03-23T15:16:12.574Z,52.00
2018-03-23T15:18:52.955Z,52.25
2018-03-23T15:21:25.801Z,51.77
2018-03-23T15:24:01.240Z,52.41
2018-03-23T15:26:42.562Z,52.55
2018-03-23T15:29:19.555Z,52.29
2018-03-23T15:31:54.254Z,53.28
2018-03-23T15:34:27.037Z,53.12
2018-03-23T15:36:59.860Z,53.08
2018-03-23T15:39:32.825Z,53.51
2018-03-23T15:42:06.576Z,54.00
2018-03-23T15:44:39.387Z,53.26
2018-03-23T15:47:12.705Z,54.24
2018-03-23T15:49:45.378Z,54.14
2018-03-23T15:52:18.067Z,54.01
2018-03-23T15:54:53.177Z,53.69
2018-03-23T15:57:26.433Z,53.55
2018-03-23T16:00:02.305Z,53.91
2018-03-23T16:05:15.877Z,54.58
2018-03-23T16:07:50.399Z,54.82
2018-03-23T16:10:25.833Z,56.71
2018-03-23T16:13:00.508Z,55.53
2018-03-23T16:15:44.658Z,55.56
2018-03-23T16:18:17.578Z,56.05
2018-03-23T16:20:51.476Z,57.01
2018-03-23T16:23:24.744Z,56.33
2018-03-23T16:25:57.416Z,56.54
2018-03-23T16:28:35.385Z,55.95
2018-03-23T16:31:08.924Z,55.83
2018-03-23T16:33:45.987Z,56.77
2018-03-23T16:36:21.944Z,56.16
2018-03-23T16:38:55.855Z,56.94
2018-03-23T16:41:30.708Z,57.06
2018-03-23T16:44:04.467Z,57.10
2018-03-23T16:46:41.057Z,57.07
2018-03-23T16:51:57.851Z,57.27
2018-03-23T16:54:33.197Z,58.11
2018-03-23T16:57:12.074Z,57.64
2018-03-23T16:59:45.251Z,56.74
2018-03-23T17:02:19.831Z,57.43
2018-03-23T17:04:53.410Z,59.07
2018-03-23T17:07:30.816Z,59.41
2018-03-23T17:10:04.439Z,59.86
2018-03-23T17:12:38.064Z,59.96
2018-03-23T17:15:17.115Z,60.66
2018-03-23T17:20:33.715Z,61.49
2018-03-23T17:23:06.669Z,61.96
2018-03-23T17:25:41.038Z,61.61
2018-03-23T17:30:54.285Z,62.13
2018-03-23T17:33:44.214Z,62.53
2018-03-23T17:36:18.435Z,63.53
2018-03-23T17:38:53.225Z,63.88
2018-03-23T17:41:30.147Z,63.52
2018-03-23T17:44:05.822Z,64.71
2018-03-23T17:46:40.438Z,64.94
2018-03-23T17:49:14.949Z,64.56
2018-03-23T17:51:48.248Z,65.40
2018-03-23T17:54:22.097Z,65.51
2018-03-23T17:56:54.969Z,65.82
2018-03-23T17:59:33.451Z,65.55
2018-03-23T18:02:07.139Z,66.38
2018-03-23T18:04:40.699Z,66.93
2018-03-23T18:07:16.737Z,67.29
2018-03-23T18:09:51.059Z,66.70
2018-03-23T18:12:24.722Z,67.35
2018-03-23T18:14:58.733Z,68.07
2018-03-23T18:17:31.404Z,68.28
2018-03-23T18:22:53.412Z,68.38
2018-03-23T18:25:27.286Z,68.17
2018-03-23T18:28:00.837Z,68.49
2018-03-23T18:30:34.621Z,69.33
2018-03-23T18:33:18.118Z,69.09
2018-03-23T18:35:56.118Z,68.85
2018-03-23T18:38:29.713Z,69.17
2018-03-23T18:41:02.872Z,68.67
2018-03-23T18:43:35.925Z,68.05
2018-03-23T18:46:09.101Z,68.15
2018-03-23T18:48:42.809Z,68.61
2018-03-23T18:51:19.604Z,68.64
2018-03-23T18:53:52.695Z,68.58
2018-03-23T18:56:25.631Z,68.75
2018-03-23T18:59:00.241Z,68.53
2018-03-23T19:01:39.308Z,69.86
2018-03-23T19:04:12.052Z,69.48
2018-03-23T19:06:46.564Z,69.34
2018-03-23T19:09:20.072Z,68.94
2018-03-23T19:11:52.993Z,69.20
2018-03-23T19:14:26.297Z,68.76
2018-03-23T19:16:59.762Z,69.64
2018-03-23T19:19:33.909Z,69.31
2018-03-23T19:22:18.891Z,69.64
2018-03-23T19:24:52.775Z,69.52
2018-03-23T19:27:25.515Z,69.87
2018-03-23T19:30:02.000Z,69.39
2018-03-23T19:32:35.366Z,68.67
2018-03-23T19:35:09.021Z,69.18
2018-03-23T19:37:46.294Z,69.32
2018-03-23T19:40:19.364Z,69.88
2018-03-23T19:42:53.082Z,69.38
2018-03-23T19:45:28.084Z,69.37
2018-03-23T19:48:00.979Z,69.13
2018-03-23T19:50:45.761Z,69.17
2018-03-23T19:53:24.442Z,69.17
2018-03-23T19:55:59.062Z,69.02
2018-03-23T19:58:32.038Z,69.20
2018-03-23T20:01:05.874Z,69.22
2018-03-23T20:03:39.313Z,69.92
2018-03-23T20:06:12.171Z,69.22
2018-03-23T20:08:46.156Z,69.03
2018-03-23T20:11:19.503Z,68.97
2018-03-23T20:13:57.094Z,69.03
2018-03-23T20:16:29.902Z,69.19
2018-03-23T20:19:02.789Z,68.84
2018-03-23T20:21:36.657Z,69.47
2018-03-23T20:24:13.942Z,69.98
2018-03-23T20:26:47.165Z,69.24
2018-03-23T20:29:20.944Z,69.76
2018-03-23T20:31:59.601Z,68.88
2018-03-23T20:34:32.605Z,69.16
2018-03-23T20:37:05.582Z,69.23
2018-03-23T20:39:39.308Z,69.23
2018-03-23T20:42:12.653Z,69.80
2018-03-23T20:44:46.464Z,69.42
2018-03-23T20:47:20.387Z,69.99
2018-03-23T20:49:54.946Z,69.54
2018-03-23T20:52:28.724Z,69.84
2018-03-23T20:55:01.636Z,69.91
2018-03-23T20:57:34.608Z,70.20
2018-03-23T21:00:08.419Z,70.34
2018-03-23T21:02:42.194Z,69.93
2018-03-23T21:05:15.648Z,70.24
2018-03-23T21:07:48.370Z,70.44
2018-03-23T21:10:20.986Z,70.81
2018-03-23T21:12:53.615Z,70.87
2018-03-23T21:15:27.017Z,70.97
2018-03-23T21:17:59.602Z,70.33
2018-03-23T21:20:32.614Z,70.59
2018-03-23T21:23:05.949Z,71.34
2018-03-23T21:25:38.870Z,71.61
2018-03-23T21:28:12.142Z,71.93
2018-03-23T21:30:44.942Z,72.22
2018-03-23T21:33:18.111Z,72.09
2018-03-23T21:35:51.747Z,72.04
2018-03-23T21:38:24.792Z,72.20
2018-03-23T21:41:03.133Z,72.01
2018-03-23T21:43:35.695Z,72.73
2018-03-23T21:46:08.886Z,72.29
2018-03-23T21:48:41.295Z,72.18
2018-03-23T21:51:14.090Z,73.16
2018-03-23T21:53:46.477Z,73.86
2018-03-23T21:56:19.287Z,73.29
2018-03-23T21:58:57.968Z,73.29
2018-03-23T22:01:31.225Z,73.17
2018-03-23T22:04:03.642Z,73.58
2018-03-23T22:06:36.281Z,73.57
2018-03-23T22:09:15.092Z,73.80
2018-03-23T22:11:49.634Z,73.62
2018-03-23T22:14:29.673Z,73.54
2018-03-23T22:17:03.260Z,72.87
2018-03-23T22:19:37.755Z,73.46
2018-03-23T22:22:10.406Z,73.50
2018-03-23T22:24:43.016Z,73.45
2018-03-23T22:27:18.087Z,74.14
2018-03-23T22:29:50.701Z,73.68
2018-03-23T22:32:23.119Z,73.45
2018-03-23T22:34:56.221Z,73.75
2018-03-23T22:37:28.758Z,74.33
2018-03-23T22:40:01.518Z,74.05
2018-03-23T22:42:34.316Z,74.26
2018-03-23T22:45:07.340Z,74.67
2018-03-23T22:47:39.932Z,74.74
2018-03-23T22:50:12.346Z,74.82
2018-03-23T22:52:45.080Z,75.32
2018-03-23T22:55:18.000Z,74.80
2018-03-23T22:57:50.454Z,75.50
2018-03-23T23:00:25.314Z,76.22
2018-03-23T23:02:57.957Z,75.45
2018-03-23T23:05:30.602Z,75.73
2018-03-23T23:08:05.710Z,75.61
2018-03-23T23:10:39.268Z,75.65
2018-03-23T23:13:13.538Z,75.44
2018-03-23T23:15:46.155Z,75.62
2018-03-23T23:18:18.953Z,75.37
2018-03-23T23:20:51.880Z,75.65
2018-03-23T23:23:27.063Z,75.76
2018-03-23T23:25:59.798Z,75.73
2018-03-23T23:28:33.388Z,76.26
2018-03-23T23:31:08.629Z,75.84
2018-03-23T23:33:41.443Z,76.08
2018-03-23T23:36:15.454Z,76.13
2018-03-23T23:38:50.197Z,75.98
2018-03-23T23:41:23.558Z,75.97
2018-03-23T23:43:56.855Z,75.76
2018-03-23T23:46:29.341Z,76.08
2018-03-23T23:49:01.999Z,76.34
2018-03-23T23:51:34.530Z,75.56
2018-03-23T23:54:09.406Z,75.15
2018-03-23T23:56:42.134Z,75.69
2018-03-23T23:59:14.639Z,75.26
